sensor_id;sensor_type;location;lat;lon;timestamp;P1;durP1;ratioP1;P2;durP2;ratioP2
6531;SDS011;3299;42.004;24.868;2024-01-30T00:00:54;2.97;;;2.70;;
6531;SDS011;3299;42.004;24.868;2024-01-30T00:03:19;2.55;;;2.35;;
6531;SDS011;3299;42.004;24.868;2024-01-30T00:05:45;2.70;;;2.50;;
6531;SDS011;3299;42.004;24.868;2024-01-30T00:08:10;4.88;;;2.33;;
6531;SDS011;3299;42.004;24.868;2024-01-30T00:10:36;2.55;;;2.35;;
6531;SDS011;3299;42.004;24.868;2024-01-30T00:13:01;2.72;;;2.50;;
6531;SDS011;3299;42.004;24.868;2024-01-30T00:15:27;2.40;;;2.30;;
6531;SDS011;3299;42.004;24.868;2024-01-30T00:17:53;2.58;;;2.13;;
6531;SDS011;3299;42.004;24.868;2024-01-30T00:20:18;4.28;;;2.65;;
6531;SDS011;3299;42.004;24.868;2024-01-30T00:22:44;2.40;;;2.22;;
6531;SDS011;3299;42.004;24.868;2024-01-30T00:25:09;2.05;;;1.90;;
6531;SDS011;3299;42.004;24.868;2024-01-30T00:27:35;2.80;;;2.50;;
6531;SDS011;3299;42.004;24.868;2024-01-30T00:30:00;3.00;;;2.45;;
6531;SDS011;3299;42.004;24.868;2024-01-30T00:32:26;2.47;;;2.28;;
6531;SDS011;3299;42.004;24.868;2024-01-30T00:34:51;2.55;;;2.35;;
6531;SDS011;3299;42.004;24.868;2024-01-30T00:37:17;2.78;;;2.58;;
6531;SDS011;3299;42.004;24.868;2024-01-30T00:39:42;2.85;;;2.55;;
6531;SDS011;3299;42.004;24.868;2024-01-30T00:42:08;3.22;;;2.92;;
6531;SDS011;3299;42.004;24.868;2024-01-30T00:44:36;2.63;;;2.42;;
6531;SDS011;3299;42.004;24.868;2024-01-30T00:47:03;2.85;;;2.65;;
6531;SDS011;3299;42.004;24.868;2024-01-30T00:49:29;6.95;;;5.10;;
6531;SDS011;3299;42.004;24.868;2024-01-30T00:51:55;3.92;;;3.42;;
6531;SDS011;3299;42.004;24.868;2024-01-30T00:54:20;3.95;;;3.05;;
6531;SDS011;3299;42.004;24.868;2024-01-30T00:56:45;3.10;;;2.78;;
6531;SDS011;3299;42.004;24.868;2024-01-30T00:59:11;2.83;;;2.63;;
6531;SDS011;3299;42.004;24.868;2024-01-30T01:01:36;2.33;;;2.08;;
6531;SDS011;3299;42.004;24.868;2024-01-30T01:04:02;2.30;;;2.10;;
6531;SDS011;3299;42.004;24.868;2024-01-30T01:06:27;2.70;;;2.25;;
6531;SDS011;3299;42.004;24.868;2024-01-30T01:08:53;2.40;;;2.30;;
6531;SDS011;3299;42.004;24.868;2024-01-30T01:11:18;2.88;;;2.58;;
6531;SDS011;3299;42.004;24.868;2024-01-30T01:13:44;3.35;;;2.58;;
6531;SDS011;3299;42.004;24.868;2024-01-30T01:16:09;2.50;;;2.30;;
6531;SDS011;3299;42.004;24.868;2024-01-30T01:18:35;2.40;;;2.22;;
6531;SDS011;3299;42.004;24.868;2024-01-30T01:21:00;2.67;;;2.47;;
6531;SDS011;3299;42.004;24.868;2024-01-30T01:23:26;2.42;;;2.15;;
6531;SDS011;3299;42.004;24.868;2024-01-30T01:25:51;2.15;;;2.03;;
6531;SDS011;3299;42.004;24.868;2024-01-30T01:28:17;2.22;;;2.13;;
6531;SDS011;3299;42.004;24.868;2024-01-30T01:30:42;2.35;;;2.17;;
6531;SDS011;3299;42.004;24.868;2024-01-30T01:33:08;2.90;;;2.70;;
6531;SDS011;3299;42.004;24.868;2024-01-30T01:35:34;2.40;;;2.30;;
6531;SDS011;3299;42.004;24.868;2024-01-30T01:38:00;2.13;;;2.03;;
6531;SDS011;3299;42.004;24.868;2024-01-30T01:40:26;2.47;;;2.33;;
6531;SDS011;3299;42.004;24.868;2024-01-30T01:42:52;2.58;;;2.45;;
6531;SDS011;3299;42.004;24.868;2024-01-30T01:45:20;3.15;;;2.20;;
6531;SDS011;3299;42.004;24.868;2024-01-30T01:47:47;2.58;;;2.42;;
6531;SDS011;3299;42.004;24.868;2024-01-30T01:50:15;2.28;;;2.13;;
6531;SDS011;3299;42.004;24.868;2024-01-30T01:52:44;2.67;;;2.47;;
6531;SDS011;3299;42.004;24.868;2024-01-30T01:55:12;2.67;;;2.47;;
6531;SDS011;3299;42.004;24.868;2024-01-30T01:57:38;2.55;;;2.30;;
6531;SDS011;3299;42.004;24.868;2024-01-30T02:00:04;2.53;;;2.42;;
6531;SDS011;3299;42.004;24.868;2024-01-30T02:02:30;2.30;;;2.17;;
6531;SDS011;3299;42.004;24.868;2024-01-30T02:05:00;2.95;;;2.75;;
6531;SDS011;3299;42.004;24.868;2024-01-30T02:07:25;2.95;;;2.42;;
6531;SDS011;3299;42.004;24.868;2024-01-30T02:09:52;2.42;;;2.22;;
6531;SDS011;3299;42.004;24.868;2024-01-30T02:12:18;2.47;;;2.33;;
6531;SDS011;3299;42.004;24.868;2024-01-30T02:14:46;2.42;;;2.22;;
6531;SDS011;3299;42.004;24.868;2024-01-30T02:17:13;2.63;;;2.42;;
6531;SDS011;3299;42.004;24.868;2024-01-30T02:19:39;2.63;;;2.42;;
6531;SDS011;3299;42.004;24.868;2024-01-30T02:22:04;2.97;;;2.40;;
6531;SDS011;3299;42.004;24.868;2024-01-30T02:24:30;2.75;;;2.40;;
6531;SDS011;3299;42.004;24.868;2024-01-30T02:26:55;2.92;;;2.58;;
6531;SDS011;3299;42.004;24.868;2024-01-30T02:29:21;2.17;;;1.98;;
6531;SDS011;3299;42.004;24.868;2024-01-30T02:31:46;2.53;;;2.33;;
6531;SDS011;3299;42.004;24.868;2024-01-30T02:34:12;4.05;;;2.42;;
6531;SDS011;3299;42.004;24.868;2024-01-30T02:36:38;2.33;;;2.20;;
6531;SDS011;3299;42.004;24.868;2024-01-30T02:39:03;2.75;;;2.55;;
6531;SDS011;3299;42.004;24.868;2024-01-30T02:41:30;3.33;;;2.40;;
6531;SDS011;3299;42.004;24.868;2024-01-30T02:43:55;2.25;;;2.15;;
6531;SDS011;3299;42.004;24.868;2024-01-30T02:46:20;2.20;;;2.10;;
6531;SDS011;3299;42.004;24.868;2024-01-30T02:48:46;2.90;;;2.70;;
6531;SDS011;3299;42.004;24.868;2024-01-30T02:51:11;3.15;;;2.83;;
6531;SDS011;3299;42.004;24.868;2024-01-30T02:53:36;4.18;;;3.53;;
6531;SDS011;3299;42.004;24.868;2024-01-30T02:56:02;4.32;;;3.78;;
6531;SDS011;3299;42.004;24.868;2024-01-30T02:58:28;5.88;;;4.70;;
6531;SDS011;3299;42.004;24.868;2024-01-30T03:00:53;5.15;;;4.18;;
6531;SDS011;3299;42.004;24.868;2024-01-30T03:03:19;6.78;;;4.68;;
6531;SDS011;3299;42.004;24.868;2024-01-30T03:05:44;8.65;;;4.47;;
6531;SDS011;3299;42.004;24.868;2024-01-30T03:08:09;6.95;;;4.90;;
6531;SDS011;3299;42.004;24.868;2024-01-30T03:10:35;6.45;;;4.88;;
6531;SDS011;3299;42.004;24.868;2024-01-30T03:13:01;6.97;;;5.05;;
6531;SDS011;3299;42.004;24.868;2024-01-30T03:15:26;8.48;;;5.18;;
6531;SDS011;3299;42.004;24.868;2024-01-30T03:17:53;6.15;;;5.47;;
6531;SDS011;3299;42.004;24.868;2024-01-30T03:20:19;7.43;;;5.45;;
6531;SDS011;3299;42.004;24.868;2024-01-30T03:22:44;8.45;;;5.70;;
6531;SDS011;3299;42.004;24.868;2024-01-30T03:25:10;8.38;;;5.70;;
6531;SDS011;3299;42.004;24.868;2024-01-30T03:27:35;7.93;;;5.70;;
6531;SDS011;3299;42.004;24.868;2024-01-30T03:30:01;9.65;;;5.85;;
6531;SDS011;3299;42.004;24.868;2024-01-30T03:32:27;10.23;;;6.07;;
6531;SDS011;3299;42.004;24.868;2024-01-30T03:34:52;10.55;;;6.30;;
6531;SDS011;3299;42.004;24.868;2024-01-30T03:37:18;9.85;;;6.53;;
6531;SDS011;3299;42.004;24.868;2024-01-30T03:39:44;11.82;;;6.22;;
6531;SDS011;3299;42.004;24.868;2024-01-30T03:42:09;8.30;;;6.43;;
6531;SDS011;3299;42.004;24.868;2024-01-30T03:44:35;13.52;;;6.45;;
6531;SDS011;3299;42.004;24.868;2024-01-30T03:47:00;11.15;;;7.10;;
6531;SDS011;3299;42.004;24.868;2024-01-30T03:49:25;10.60;;;6.68;;
6531;SDS011;3299;42.004;24.868;2024-01-30T03:51:51;8.50;;;6.70;;
6531;SDS011;3299;42.004;24.868;2024-01-30T03:54:16;10.10;;;6.25;;
6531;SDS011;3299;42.004;24.868;2024-01-30T03:56:42;9.18;;;6.28;;
6531;SDS011;3299;42.004;24.868;2024-01-30T03:59:07;8.38;;;5.75;;
6531;SDS011;3299;42.004;24.868;2024-01-30T04:01:32;12.85;;;6.38;;
6531;SDS011;3299;42.004;24.868;2024-01-30T04:03:58;10.43;;;6.45;;
6531;SDS011;3299;42.004;24.868;2024-01-30T04:06:23;9.45;;;6.88;;
6531;SDS011;3299;42.004;24.868;2024-01-30T04:08:49;8.38;;;6.28;;
6531;SDS011;3299;42.004;24.868;2024-01-30T04:11:14;12.32;;;6.93;;
6531;SDS011;3299;42.004;24.868;2024-01-30T04:13:40;14.38;;;7.07;;
6531;SDS011;3299;42.004;24.868;2024-01-30T04:16:07;10.93;;;7.20;;
6531;SDS011;3299;42.004;24.868;2024-01-30T04:18:33;14.68;;;8.77;;
6531;SDS011;3299;42.004;24.868;2024-01-30T04:20:59;10.95;;;7.65;;
6531;SDS011;3299;42.004;24.868;2024-01-30T04:23:24;10.52;;;7.38;;
6531;SDS011;3299;42.004;24.868;2024-01-30T04:25:49;8.88;;;7.15;;
6531;SDS011;3299;42.004;24.868;2024-01-30T04:28:15;18.05;;;8.00;;
6531;SDS011;3299;42.004;24.868;2024-01-30T04:30:40;13.55;;;9.18;;
6531;SDS011;3299;42.004;24.868;2024-01-30T04:33:06;12.43;;;8.25;;
6531;SDS011;3299;42.004;24.868;2024-01-30T04:35:31;12.77;;;8.95;;
6531;SDS011;3299;42.004;24.868;2024-01-30T04:37:57;14.43;;;9.90;;
6531;SDS011;3299;42.004;24.868;2024-01-30T04:40:22;17.67;;;10.88;;
6531;SDS011;3299;42.004;24.868;2024-01-30T04:42:48;14.55;;;9.50;;
6531;SDS011;3299;42.004;24.868;2024-01-30T04:45:13;11.85;;;8.73;;
6531;SDS011;3299;42.004;24.868;2024-01-30T04:47:38;13.68;;;8.18;;
6531;SDS011;3299;42.004;24.868;2024-01-30T04:50:07;9.43;;;7.93;;
6531;SDS011;3299;42.004;24.868;2024-01-30T04:52:33;14.15;;;9.43;;
6531;SDS011;3299;42.004;24.868;2024-01-30T04:54:59;13.85;;;8.48;;
6531;SDS011;3299;42.004;24.868;2024-01-30T04:57:24;10.98;;;8.45;;
6531;SDS011;3299;42.004;24.868;2024-01-30T04:59:49;10.68;;;8.70;;
6531;SDS011;3299;42.004;24.868;2024-01-30T05:02:15;13.13;;;8.57;;
6531;SDS011;3299;42.004;24.868;2024-01-30T05:04:40;10.52;;;8.60;;
6531;SDS011;3299;42.004;24.868;2024-01-30T05:07:06;16.77;;;9.57;;
6531;SDS011;3299;42.004;24.868;2024-01-30T05:09:32;16.17;;;9.20;;
6531;SDS011;3299;42.004;24.868;2024-01-30T05:11:57;14.48;;;9.00;;
6531;SDS011;3299;42.004;24.868;2024-01-30T05:14:23;14.05;;;8.75;;
6531;SDS011;3299;42.004;24.868;2024-01-30T05:16:49;11.75;;;7.88;;
6531;SDS011;3299;42.004;24.868;2024-01-30T05:19:14;19.70;;;10.45;;
6531;SDS011;3299;42.004;24.868;2024-01-30T05:21:40;14.57;;;9.02;;
6531;SDS011;3299;42.004;24.868;2024-01-30T05:24:06;15.88;;;9.95;;
6531;SDS011;3299;42.004;24.868;2024-01-30T05:26:32;20.85;;;12.48;;
6531;SDS011;3299;42.004;24.868;2024-01-30T05:28:57;19.80;;;12.20;;
6531;SDS011;3299;42.004;24.868;2024-01-30T05:31:23;15.93;;;10.88;;
6531;SDS011;3299;42.004;24.868;2024-01-30T05:33:51;15.68;;;9.68;;
6531;SDS011;3299;42.004;24.868;2024-01-30T05:36:16;18.08;;;10.93;;
6531;SDS011;3299;42.004;24.868;2024-01-30T05:38:42;15.90;;;11.43;;
6531;SDS011;3299;42.004;24.868;2024-01-30T05:41:07;16.95;;;11.90;;
6531;SDS011;3299;42.004;24.868;2024-01-30T05:43:33;17.02;;;10.93;;
6531;SDS011;3299;42.004;24.868;2024-01-30T05:45:59;22.15;;;11.68;;
6531;SDS011;3299;42.004;24.868;2024-01-30T05:48:24;17.48;;;10.63;;
6531;SDS011;3299;42.004;24.868;2024-01-30T05:50:49;22.23;;;11.35;;
6531;SDS011;3299;42.004;24.868;2024-01-30T05:53:15;19.38;;;11.10;;
6531;SDS011;3299;42.004;24.868;2024-01-30T05:55:40;20.23;;;12.32;;
6531;SDS011;3299;42.004;24.868;2024-01-30T05:58:06;38.15;;;19.80;;
6531;SDS011;3299;42.004;24.868;2024-01-30T06:00:31;106.90;;;42.30;;
6531;SDS011;3299;42.004;24.868;2024-01-30T06:02:56;86.03;;;34.83;;
6531;SDS011;3299;42.004;24.868;2024-01-30T06:05:22;21.73;;;12.13;;
6531;SDS011;3299;42.004;24.868;2024-01-30T06:07:47;23.25;;;13.68;;
6531;SDS011;3299;42.004;24.868;2024-01-30T06:10:13;21.27;;;13.38;;
6531;SDS011;3299;42.004;24.868;2024-01-30T06:12:38;24.60;;;14.02;;
6531;SDS011;3299;42.004;24.868;2024-01-30T06:15:05;22.17;;;12.20;;
6531;SDS011;3299;42.004;24.868;2024-01-30T06:17:31;23.88;;;13.52;;
6531;SDS011;3299;42.004;24.868;2024-01-30T06:19:57;25.27;;;13.13;;
6531;SDS011;3299;42.004;24.868;2024-01-30T06:22:23;23.75;;;12.50;;
6531;SDS011;3299;42.004;24.868;2024-01-30T06:24:48;19.05;;;10.73;;
6531;SDS011;3299;42.004;24.868;2024-01-30T06:27:14;14.98;;;9.57;;
6531;SDS011;3299;42.004;24.868;2024-01-30T06:29:40;14.65;;;8.80;;
6531;SDS011;3299;42.004;24.868;2024-01-30T06:32:07;10.15;;;6.35;;
6531;SDS011;3299;42.004;24.868;2024-01-30T06:34:33;11.65;;;6.55;;
6531;SDS011;3299;42.004;24.868;2024-01-30T06:36:58;9.73;;;5.57;;
6531;SDS011;3299;42.004;24.868;2024-01-30T06:39:24;3.72;;;3.40;;
6531;SDS011;3299;42.004;24.868;2024-01-30T06:41:50;4.75;;;3.78;;
6531;SDS011;3299;42.004;24.868;2024-01-30T06:44:15;6.72;;;4.90;;
6531;SDS011;3299;42.004;24.868;2024-01-30T06:46:41;7.03;;;5.18;;
6531;SDS011;3299;42.004;24.868;2024-01-30T06:49:06;15.88;;;7.60;;
6531;SDS011;3299;42.004;24.868;2024-01-30T06:51:31;17.55;;;9.98;;
6531;SDS011;3299;42.004;24.868;2024-01-30T06:53:57;10.43;;;6.80;;
6531;SDS011;3299;42.004;24.868;2024-01-30T06:56:22;12.30;;;7.57;;
6531;SDS011;3299;42.004;24.868;2024-01-30T06:58:48;6.80;;;4.57;;
6531;SDS011;3299;42.004;24.868;2024-01-30T07:01:14;14.02;;;8.02;;
6531;SDS011;3299;42.004;24.868;2024-01-30T07:03:40;15.07;;;7.07;;
6531;SDS011;3299;42.004;24.868;2024-01-30T07:06:06;12.15;;;8.25;;
6531;SDS011;3299;42.004;24.868;2024-01-30T07:08:31;29.85;;;14.55;;
6531;SDS011;3299;42.004;24.868;2024-01-30T07:10:57;32.95;;;16.80;;
6531;SDS011;3299;42.004;24.868;2024-01-30T07:13:22;33.67;;;14.68;;
6531;SDS011;3299;42.004;24.868;2024-01-30T07:15:48;26.70;;;13.07;;
6531;SDS011;3299;42.004;24.868;2024-01-30T07:18:13;23.33;;;13.65;;
6531;SDS011;3299;42.004;24.868;2024-01-30T07:20:39;30.42;;;15.10;;
6531;SDS011;3299;42.004;24.868;2024-01-30T07:23:14;26.52;;;15.13;;
6531;SDS011;3299;42.004;24.868;2024-01-30T07:25:42;24.15;;;14.00;;
6531;SDS011;3299;42.004;24.868;2024-01-30T07:28:09;29.00;;;14.75;;
6531;SDS011;3299;42.004;24.868;2024-01-30T07:30:35;25.08;;;13.25;;
6531;SDS011;3299;42.004;24.868;2024-01-30T07:33:01;28.25;;;16.00;;
6531;SDS011;3299;42.004;24.868;2024-01-30T07:35:27;25.13;;;16.85;;
6531;SDS011;3299;42.004;24.868;2024-01-30T07:37:52;25.40;;;16.60;;
6531;SDS011;3299;42.004;24.868;2024-01-30T07:40:18;29.48;;;17.58;;
6531;SDS011;3299;42.004;24.868;2024-01-30T07:42:47;25.95;;;16.25;;
6531;SDS011;3299;42.004;24.868;2024-01-30T07:45:13;26.15;;;15.93;;
6531;SDS011;3299;42.004;24.868;2024-01-30T07:47:38;27.42;;;15.00;;
6531;SDS011;3299;42.004;24.868;2024-01-30T07:50:04;35.28;;;15.68;;
6531;SDS011;3299;42.004;24.868;2024-01-30T07:52:30;23.90;;;14.43;;
6531;SDS011;3299;42.004;24.868;2024-01-30T07:54:55;24.60;;;14.07;;
6531;SDS011;3299;42.004;24.868;2024-01-30T07:57:21;24.27;;;16.10;;
6531;SDS011;3299;42.004;24.868;2024-01-30T07:59:47;27.73;;;16.90;;
6531;SDS011;3299;42.004;24.868;2024-01-30T08:02:12;23.42;;;13.10;;
6531;SDS011;3299;42.004;24.868;2024-01-30T08:04:38;22.45;;;14.70;;
6531;SDS011;3299;42.004;24.868;2024-01-30T08:07:04;20.17;;;13.25;;
6531;SDS011;3299;42.004;24.868;2024-01-30T08:09:29;18.70;;;12.93;;
6531;SDS011;3299;42.004;24.868;2024-01-30T08:11:55;22.65;;;12.80;;
6531;SDS011;3299;42.004;24.868;2024-01-30T08:14:20;20.17;;;13.75;;
6531;SDS011;3299;42.004;24.868;2024-01-30T08:16:46;22.35;;;13.40;;
6531;SDS011;3299;42.004;24.868;2024-01-30T08:19:11;26.20;;;15.27;;
6531;SDS011;3299;42.004;24.868;2024-01-30T08:21:37;33.22;;;15.65;;
6531;SDS011;3299;42.004;24.868;2024-01-30T08:24:03;25.83;;;14.43;;
6531;SDS011;3299;42.004;24.868;2024-01-30T08:26:29;20.45;;;13.15;;
6531;SDS011;3299;42.004;24.868;2024-01-30T08:28:55;23.48;;;13.38;;
6531;SDS011;3299;42.004;24.868;2024-01-30T08:31:20;20.60;;;13.23;;
6531;SDS011;3299;42.004;24.868;2024-01-30T08:33:46;21.95;;;12.35;;
6531;SDS011;3299;42.004;24.868;2024-01-30T08:36:11;21.98;;;13.98;;
6531;SDS011;3299;42.004;24.868;2024-01-30T08:38:37;22.58;;;14.32;;
6531;SDS011;3299;42.004;24.868;2024-01-30T08:41:02;25.73;;;14.30;;
6531;SDS011;3299;42.004;24.868;2024-01-30T08:43:28;24.38;;;15.13;;
6531;SDS011;3299;42.004;24.868;2024-01-30T08:45:53;33.55;;;15.02;;
6531;SDS011;3299;42.004;24.868;2024-01-30T08:48:19;24.50;;;14.23;;
6531;SDS011;3299;42.004;24.868;2024-01-30T08:50:44;24.98;;;16.98;;
6531;SDS011;3299;42.004;24.868;2024-01-30T08:53:09;28.77;;;15.73;;
6531;SDS011;3299;42.004;24.868;2024-01-30T08:55:35;22.23;;;13.45;;
6531;SDS011;3299;42.004;24.868;2024-01-30T08:58:00;31.85;;;16.08;;
6531;SDS011;3299;42.004;24.868;2024-01-30T09:00:27;24.17;;;14.95;;
6531;SDS011;3299;42.004;24.868;2024-01-30T09:02:54;20.60;;;14.00;;
6531;SDS011;3299;42.004;24.868;2024-01-30T09:05:19;25.02;;;14.88;;
6531;SDS011;3299;42.004;24.868;2024-01-30T09:07:45;22.25;;;15.02;;
6531;SDS011;3299;42.004;24.868;2024-01-30T09:10:11;22.92;;;14.57;;
6531;SDS011;3299;42.004;24.868;2024-01-30T09:12:36;23.58;;;14.65;;
6531;SDS011;3299;42.004;24.868;2024-01-30T09:15:02;36.83;;;15.40;;
6531;SDS011;3299;42.004;24.868;2024-01-30T09:17:28;19.88;;;13.25;;
6531;SDS011;3299;42.004;24.868;2024-01-30T09:19:53;21.20;;;13.73;;
6531;SDS011;3299;42.004;24.868;2024-01-30T09:22:19;22.67;;;13.60;;
6531;SDS011;3299;42.004;24.868;2024-01-30T09:24:44;24.10;;;15.20;;
6531;SDS011;3299;42.004;24.868;2024-01-30T09:27:10;25.05;;;15.20;;
6531;SDS011;3299;42.004;24.868;2024-01-30T09:29:35;25.10;;;14.93;;
6531;SDS011;3299;42.004;24.868;2024-01-30T09:32:01;21.15;;;14.07;;
6531;SDS011;3299;42.004;24.868;2024-01-30T09:34:26;16.55;;;12.15;;
6531;SDS011;3299;42.004;24.868;2024-01-30T09:36:52;14.77;;;12.35;;
6531;SDS011;3299;42.004;24.868;2024-01-30T09:39:17;12.90;;;9.45;;
6531;SDS011;3299;42.004;24.868;2024-01-30T09:41:45;15.82;;;9.95;;
6531;SDS011;3299;42.004;24.868;2024-01-30T09:44:15;15.90;;;10.75;;
6531;SDS011;3299;42.004;24.868;2024-01-30T09:46:41;16.65;;;10.25;;
6531;SDS011;3299;42.004;24.868;2024-01-30T09:49:08;15.93;;;9.60;;
6531;SDS011;3299;42.004;24.868;2024-01-30T09:51:34;16.33;;;10.40;;
6531;SDS011;3299;42.004;24.868;2024-01-30T09:54:01;17.98;;;10.65;;
6531;SDS011;3299;42.004;24.868;2024-01-30T09:56:28;19.80;;;11.23;;
6531;SDS011;3299;42.004;24.868;2024-01-30T09:58:54;19.48;;;11.75;;
6531;SDS011;3299;42.004;24.868;2024-01-30T10:01:19;19.27;;;10.77;;
6531;SDS011;3299;42.004;24.868;2024-01-30T10:03:45;19.80;;;10.82;;
6531;SDS011;3299;42.004;24.868;2024-01-30T10:06:11;17.13;;;9.13;;
6531;SDS011;3299;42.004;24.868;2024-01-30T10:08:36;11.82;;;8.45;;
6531;SDS011;3299;42.004;24.868;2024-01-30T10:11:02;13.13;;;7.90;;
6531;SDS011;3299;42.004;24.868;2024-01-30T10:13:28;15.48;;;8.45;;
6531;SDS011;3299;42.004;24.868;2024-01-30T10:15:54;12.43;;;7.35;;
6531;SDS011;3299;42.004;24.868;2024-01-30T10:18:22;12.95;;;7.43;;
6531;SDS011;3299;42.004;24.868;2024-01-30T10:20:48;11.65;;;6.75;;
6531;SDS011;3299;42.004;24.868;2024-01-30T10:23:14;8.65;;;6.25;;
6531;SDS011;3299;42.004;24.868;2024-01-30T10:25:39;11.50;;;6.95;;
6531;SDS011;3299;42.004;24.868;2024-01-30T10:28:05;9.65;;;6.88;;
6531;SDS011;3299;42.004;24.868;2024-01-30T10:30:31;13.32;;;6.53;;
6531;SDS011;3299;42.004;24.868;2024-01-30T10:32:56;11.60;;;5.95;;
6531;SDS011;3299;42.004;24.868;2024-01-30T10:35:22;6.95;;;5.78;;
6531;SDS011;3299;42.004;24.868;2024-01-30T10:37:47;6.10;;;5.10;;
6531;SDS011;3299;42.004;24.868;2024-01-30T10:40:14;8.20;;;5.80;;
6531;SDS011;3299;42.004;24.868;2024-01-30T10:42:43;6.82;;;5.20;;
6531;SDS011;3299;42.004;24.868;2024-01-30T10:45:13;6.30;;;5.40;;
6531;SDS011;3299;42.004;24.868;2024-01-30T10:47:40;6.82;;;5.30;;
6531;SDS011;3299;42.004;24.868;2024-01-30T10:50:08;9.68;;;5.47;;
6531;SDS011;3299;42.004;24.868;2024-01-30T10:52:35;7.50;;;5.68;;
6531;SDS011;3299;42.004;24.868;2024-01-30T10:55:01;7.35;;;4.70;;
6531;SDS011;3299;42.004;24.868;2024-01-30T10:57:30;4.60;;;3.92;;
6531;SDS011;3299;42.004;24.868;2024-01-30T10:59:59;6.38;;;4.63;;
6531;SDS011;3299;42.004;24.868;2024-01-30T11:02:26;5.43;;;4.60;;
6531;SDS011;3299;42.004;24.868;2024-01-30T11:04:56;6.28;;;5.13;;
6531;SDS011;3299;42.004;24.868;2024-01-30T11:07:24;4.90;;;4.25;;
6531;SDS011;3299;42.004;24.868;2024-01-30T11:12:26;4.60;;;4.00;;
6531;SDS011;3299;42.004;24.868;2024-01-30T11:15:05;6.60;;;3.63;;
6531;SDS011;3299;42.004;24.868;2024-01-30T11:17:43;4.10;;;3.20;;
6531;SDS011;3299;42.004;24.868;2024-01-30T11:22:41;4.90;;;3.97;;
6531;SDS011;3299;42.004;24.868;2024-01-30T11:25:11;3.20;;;2.92;;
6531;SDS011;3299;42.004;24.868;2024-01-30T11:27:37;3.10;;;2.80;;
6531;SDS011;3299;42.004;24.868;2024-01-30T11:30:03;3.70;;;3.10;;
6531;SDS011;3299;42.004;24.868;2024-01-30T11:32:30;3.40;;;3.10;;
6531;SDS011;3299;42.004;24.868;2024-01-30T11:34:55;3.75;;;3.22;;
6531;SDS011;3299;42.004;24.868;2024-01-30T11:37:21;3.92;;;3.28;;
6531;SDS011;3299;42.004;24.868;2024-01-30T11:39:50;4.70;;;3.72;;
6531;SDS011;3299;42.004;24.868;2024-01-30T11:42:16;3.85;;;3.55;;
6531;SDS011;3299;42.004;24.868;2024-01-30T11:44:46;4.35;;;3.83;;
6531;SDS011;3299;42.004;24.868;2024-01-30T11:47:12;5.03;;;3.13;;
6531;SDS011;3299;42.004;24.868;2024-01-30T11:49:37;4.22;;;3.83;;
6531;SDS011;3299;42.004;24.868;2024-01-30T11:52:04;4.00;;;3.47;;
6531;SDS011;3299;42.004;24.868;2024-01-30T11:54:29;3.20;;;2.97;;
6531;SDS011;3299;42.004;24.868;2024-01-30T11:56:55;3.95;;;3.55;;
6531;SDS011;3299;42.004;24.868;2024-01-30T11:59:20;5.68;;;3.70;;
6531;SDS011;3299;42.004;24.868;2024-01-30T12:01:46;3.00;;;2.80;;
6531;SDS011;3299;42.004;24.868;2024-01-30T12:04:12;4.55;;;3.45;;
6531;SDS011;3299;42.004;24.868;2024-01-30T12:06:37;4.07;;;3.60;;
6531;SDS011;3299;42.004;24.868;2024-01-30T12:09:04;4.20;;;3.80;;
6531;SDS011;3299;42.004;24.868;2024-01-30T12:11:30;4.03;;;3.63;;
6531;SDS011;3299;42.004;24.868;2024-01-30T12:13:56;4.70;;;4.13;;
6531;SDS011;3299;42.004;24.868;2024-01-30T12:16:22;4.10;;;3.70;;
6531;SDS011;3299;42.004;24.868;2024-01-30T12:18:48;3.47;;;2.97;;
6531;SDS011;3299;42.004;24.868;2024-01-30T12:21:17;3.83;;;3.10;;
6531;SDS011;3299;42.004;24.868;2024-01-30T12:23:43;4.90;;;3.35;;
6531;SDS011;3299;42.004;24.868;2024-01-30T12:26:08;3.80;;;3.50;;
6531;SDS011;3299;42.004;24.868;2024-01-30T12:28:36;8.88;;;6.93;;
6531;SDS011;3299;42.004;24.868;2024-01-30T12:31:04;4.00;;;3.47;;
6531;SDS011;3299;42.004;24.868;2024-01-30T12:33:30;6.72;;;3.40;;
6531;SDS011;3299;42.004;24.868;2024-01-30T12:35:56;4.78;;;3.45;;
6531;SDS011;3299;42.004;24.868;2024-01-30T12:38:23;4.47;;;3.75;;
6531;SDS011;3299;42.004;24.868;2024-01-30T12:40:50;4.15;;;3.40;;
6531;SDS011;3299;42.004;24.868;2024-01-30T12:43:20;3.47;;;3.17;;
6531;SDS011;3299;42.004;24.868;2024-01-30T12:45:46;6.45;;;5.05;;
6531;SDS011;3299;42.004;24.868;2024-01-30T12:48:12;6.97;;;4.93;;
6531;SDS011;3299;42.004;24.868;2024-01-30T12:50:37;4.88;;;4.43;;
6531;SDS011;3299;42.004;24.868;2024-01-30T12:53:03;7.40;;;5.68;;
6531;SDS011;3299;42.004;24.868;2024-01-30T12:55:29;4.72;;;4.25;;
6531;SDS011;3299;42.004;24.868;2024-01-30T12:57:55;6.65;;;5.35;;
6531;SDS011;3299;42.004;24.868;2024-01-30T13:00:21;11.02;;;7.32;;
6531;SDS011;3299;42.004;24.868;2024-01-30T13:02:47;6.28;;;5.10;;
6531;SDS011;3299;42.004;24.868;2024-01-30T13:05:13;7.70;;;4.25;;
6531;SDS011;3299;42.004;24.868;2024-01-30T13:07:38;5.53;;;4.45;;
6531;SDS011;3299;42.004;24.868;2024-01-30T13:10:04;6.00;;;3.75;;
6531;SDS011;3299;42.004;24.868;2024-01-30T13:12:30;4.97;;;4.45;;
6531;SDS011;3299;42.004;24.868;2024-01-30T13:14:57;5.47;;;4.35;;
6531;SDS011;3299;42.004;24.868;2024-01-30T13:17:23;6.72;;;5.20;;
6531;SDS011;3299;42.004;24.868;2024-01-30T13:19:49;5.68;;;4.40;;
6531;SDS011;3299;42.004;24.868;2024-01-30T13:22:15;5.22;;;4.18;;
6531;SDS011;3299;42.004;24.868;2024-01-30T13:24:40;6.47;;;4.63;;
6531;SDS011;3299;42.004;24.868;2024-01-30T13:27:06;5.07;;;3.42;;
6531;SDS011;3299;42.004;24.868;2024-01-30T13:29:32;5.88;;;3.88;;
6531;SDS011;3299;42.004;24.868;2024-01-30T13:31:57;3.38;;;3.08;;
6531;SDS011;3299;42.004;24.868;2024-01-30T13:34:23;5.70;;;3.85;;
6531;SDS011;3299;42.004;24.868;2024-01-30T13:36:48;4.38;;;3.97;;
6531;SDS011;3299;42.004;24.868;2024-01-30T13:39:14;8.43;;;4.05;;
6531;SDS011;3299;42.004;24.868;2024-01-30T13:41:43;4.13;;;3.75;;
6531;SDS011;3299;42.004;24.868;2024-01-30T13:44:08;3.80;;;3.50;;
6531;SDS011;3299;42.004;24.868;2024-01-30T13:46:34;3.92;;;3.53;;
6531;SDS011;3299;42.004;24.868;2024-01-30T13:49:00;5.78;;;4.28;;
6531;SDS011;3299;42.004;24.868;2024-01-30T13:51:25;14.45;;;10.82;;
6531;SDS011;3299;42.004;24.868;2024-01-30T13:53:51;5.60;;;4.43;;
6531;SDS011;3299;42.004;24.868;2024-01-30T13:56:16;7.97;;;4.70;;
6531;SDS011;3299;42.004;24.868;2024-01-30T13:58:42;5.53;;;4.78;;
6531;SDS011;3299;42.004;24.868;2024-01-30T14:01:07;4.50;;;3.85;;
6531;SDS011;3299;42.004;24.868;2024-01-30T14:03:34;6.70;;;4.43;;
6531;SDS011;3299;42.004;24.868;2024-01-30T14:06:00;4.25;;;3.80;;
6531;SDS011;3299;42.004;24.868;2024-01-30T14:08:26;5.20;;;3.78;;
6531;SDS011;3299;42.004;24.868;2024-01-30T14:10:53;4.50;;;3.92;;
6531;SDS011;3299;42.004;24.868;2024-01-30T14:13:20;3.85;;;3.20;;
6531;SDS011;3299;42.004;24.868;2024-01-30T14:15:46;4.43;;;3.80;;
6531;SDS011;3299;42.004;24.868;2024-01-30T14:18:11;6.90;;;3.83;;
6531;SDS011;3299;42.004;24.868;2024-01-30T14:20:37;4.63;;;3.75;;
6531;SDS011;3299;42.004;24.868;2024-01-30T14:23:02;4.43;;;3.85;;
6531;SDS011;3299;42.004;24.868;2024-01-30T14:25:28;4.82;;;3.97;;
6531;SDS011;3299;42.004;24.868;2024-01-30T14:27:53;4.15;;;3.50;;
6531;SDS011;3299;42.004;24.868;2024-01-30T14:30:18;6.13;;;3.85;;
6531;SDS011;3299;42.004;24.868;2024-01-30T14:32:44;4.18;;;3.78;;
6531;SDS011;3299;42.004;24.868;2024-01-30T14:35:10;3.92;;;3.30;;
6531;SDS011;3299;42.004;24.868;2024-01-30T14:37:36;4.10;;;2.90;;
6531;SDS011;3299;42.004;24.868;2024-01-30T14:40:03;5.78;;;3.45;;
6531;SDS011;3299;42.004;24.868;2024-01-30T14:42:28;3.78;;;3.13;;
6531;SDS011;3299;42.004;24.868;2024-01-30T14:44:56;4.03;;;3.40;;
6531;SDS011;3299;42.004;24.868;2024-01-30T14:47:22;4.80;;;3.25;;
6531;SDS011;3299;42.004;24.868;2024-01-30T14:49:48;5.05;;;3.60;;